sensor_id;sensor_type;location;lat;lon;timestamp;pressure;altitude;pressure_sealevel;temperature;humidity
21956;BME280;11142;49.930;8.606;2023-04-02T00:05:39;99175.34;;;10.66;100.00
21956;BME280;11142;49.930;8.606;2023-04-02T00:08:19;99175.97;;;10.58;100.00
21956;BME280;11142;49.930;8.606;2023-04-02T00:10:49;99183.84;;;10.57;100.00
21956;BME280;11142;49.930;8.606;2023-04-02T00:13:20;99184.34;;;10.62;100.00
21956;BME280;11142;49.930;8.606;2023-04-02T00:15:49;99187.28;;;10.69;100.00
21956;BME280;11142;49.930;8.606;2023-04-02T00:18:19;99181.38;;;10.78;100.00
21956;BME280;11142;49.930;8.606;2023-04-02T00:20:49;99198.34;;;10.71;100.00
21956;BME280;11142;49.930;8.606;2023-04-02T00:23:20;99188.66;;;10.73;100.00
21956;BME280;11142;49.930;8.606;2023-04-02T00:25:49;99186.69;;;10.65;100.00
21956;BME280;11142;49.930;8.606;2023-04-02T00:28:17;99197.56;;;10.59;100.00
21956;BME280;11142;49.930;8.606;2023-04-02T00:33:16;99195.06;;;10.69;100.00
21956;BME280;11142;49.930;8.606;2023-04-02T00:35:45;99209.22;;;10.64;100.00
21956;BME280;11142;49.930;8.606;2023-04-02T00:38:18;99203.19;;;10.64;100.00
21956;BME280;11142;49.930;8.606;2023-04-02T00:40:48;99207.66;;;10.73;100.00
21956;BME280;11142;49.930;8.606;2023-04-02T00:43:16;99206.75;;;10.52;100.00
21956;BME280;11142;49.930;8.606;2023-04-02T00:45:46;99197.19;;;10.41;100.00
21956;BME280;11142;49.930;8.606;2023-04-02T00:48:24;99200.97;;;10.48;100.00
21956;BME280;11142;49.930;8.606;2023-04-02T00:50:54;99197.91;;;10.32;100.00
21956;BME280;11142;49.930;8.606;2023-04-02T00:53:23;99199.66;;;10.32;100.00
21956;BME280;11142;49.930;8.606;2023-04-02T00:55:53;99195.78;;;10.26;100.00
21956;BME280;11142;49.930;8.606;2023-04-02T00:58:25;99197.66;;;10.24;100.00
21956;BME280;11142;49.930;8.606;2023-04-02T01:00:53;99197.91;;;10.32;100.00
21956;BME280;11142;49.930;8.606;2023-04-02T01:03:31;99196.25;;;10.31;100.00
21956;BME280;11142;49.930;8.606;2023-04-02T01:06:05;99205.09;;;10.29;100.00
21956;BME280;11142;49.930;8.606;2023-04-02T01:08:39;99200.81;;;10.28;100.00
21956;BME280;11142;49.930;8.606;2023-04-02T01:11:16;99199.06;;;10.28;100.00
21956;BME280;11142;49.930;8.606;2023-04-02T01:13:50;99203.78;;;10.45;100.00
21956;BME280;11142;49.930;8.606;2023-04-02T01:16:21;99209.94;;;10.55;100.00
21956;BME280;11142;49.930;8.606;2023-04-02T01:18:55;99218.06;;;10.40;100.00
21956;BME280;11142;49.930;8.606;2023-04-02T01:21:30;99213.56;;;10.42;100.00
21956;BME280;11142;49.930;8.606;2023-04-02T01:24:03;99217.94;;;10.52;100.00
21956;BME280;11142;49.930;8.606;2023-04-02T01:26:45;99217.72;;;10.55;100.00
21956;BME280;11142;49.930;8.606;2023-04-02T01:29:18;99228.31;;;10.63;100.00
21956;BME280;11142;49.930;8.606;2023-04-02T01:31:46;99221.59;;;10.61;100.00
21956;BME280;11142;49.930;8.606;2023-04-02T01:34:16;99233.75;;;10.60;100.00
21956;BME280;11142;49.930;8.606;2023-04-02T01:36:48;99237.63;;;10.66;100.00
21956;BME280;11142;49.930;8.606;2023-04-02T01:39:21;99237.50;;;10.79;100.00
21956;BME280;11142;49.930;8.606;2023-04-02T01:41:58;99245.88;;;10.93;100.00
21956;BME280;11142;49.930;8.606;2023-04-02T01:44:31;99254.25;;;10.97;100.00
21956;BME280;11142;49.930;8.606;2023-04-02T01:47:01;99262.69;;;11.10;100.00
21956;BME280;11142;49.930;8.606;2023-04-02T01:49:31;99265.28;;;11.10;100.00
21956;BME280;11142;49.930;8.606;2023-04-02T01:51:59;99260.81;;;11.01;100.00
21956;BME280;11142;49.930;8.606;2023-04-02T01:54:30;99269.09;;;10.73;100.00
21956;BME280;11142;49.930;8.606;2023-04-02T01:56:58;99271.94;;;10.47;100.00
21956;BME280;11142;49.930;8.606;2023-04-02T01:59:26;99265.81;;;10.48;100.00
21956;BME280;11142;49.930;8.606;2023-04-02T02:02:01;99263.81;;;10.52;100.00
21956;BME280;11142;49.930;8.606;2023-04-02T02:04:31;99271.47;;;10.42;100.00
21956;BME280;11142;49.930;8.606;2023-04-02T02:07:00;99266.25;;;10.31;100.00
21956;BME280;11142;49.930;8.606;2023-04-02T02:09:29;99265.09;;;10.24;100.00
21956;BME280;11142;49.930;8.606;2023-04-02T02:11:59;99264.47;;;10.21;100.00
21956;BME280;11142;49.930;8.606;2023-04-02T02:14:29;99265.41;;;10.20;100.00
21956;BME280;11142;49.930;8.606;2023-04-02T02:16:58;99260.84;;;10.34;100.00
21956;BME280;11142;49.930;8.606;2023-04-02T02:19:30;99261.06;;;10.20;100.00
21956;BME280;11142;49.930;8.606;2023-04-02T02:22:02;99261.53;;;10.14;100.00
21956;BME280;11142;49.930;8.606;2023-04-02T02:24:32;99272.28;;;10.43;100.00
21956;BME280;11142;49.930;8.606;2023-04-02T02:27:07;99278.66;;;10.61;100.00
21956;BME280;11142;49.930;8.606;2023-04-02T02:29:42;99288.69;;;10.77;100.00
21956;BME280;11142;49.930;8.606;2023-04-02T02:32:10;99295.53;;;10.89;100.00
21956;BME280;11142;49.930;8.606;2023-04-02T02:34:42;99296.00;;;10.60;100.00
21956;BME280;11142;49.930;8.606;2023-04-02T02:37:13;99292.91;;;10.44;100.00
21956;BME280;11142;49.930;8.606;2023-04-02T02:39:43;99300.00;;;10.42;100.00
21956;BME280;11142;49.930;8.606;2023-04-02T02:42:13;99302.22;;;10.47;100.00
21956;BME280;11142;49.930;8.606;2023-04-02T02:44:43;99305.38;;;10.28;100.00
21956;BME280;11142;49.930;8.606;2023-04-02T02:47:13;99316.25;;;10.33;100.00
21956;BME280;11142;49.930;8.606;2023-04-02T02:49:43;99302.00;;;10.50;100.00
21956;BME280;11142;49.930;8.606;2023-04-02T02:52:13;99310.13;;;10.45;100.00
21956;BME280;11142;49.930;8.606;2023-04-02T02:54:49;99312.13;;;10.42;100.00
21956;BME280;11142;49.930;8.606;2023-04-02T02:57:20;99313.28;;;10.38;100.00
21956;BME280;11142;49.930;8.606;2023-04-02T02:59:49;99320.72;;;10.31;100.00
21956;BME280;11142;49.930;8.606;2023-04-02T03:02:17;99324.50;;;10.38;100.00
21956;BME280;11142;49.930;8.606;2023-04-02T03:04:47;99329.91;;;10.35;100.00
21956;BME280;11142;49.930;8.606;2023-04-02T03:07:21;99328.16;;;10.12;100.00
21956;BME280;11142;49.930;8.606;2023-04-02T03:09:53;99328.75;;;10.39;100.00
21956;BME280;11142;49.930;8.606;2023-04-02T03:12:27;99329.72;;;10.49;100.00
21956;BME280;11142;49.930;8.606;2023-04-02T03:14:59;99335.63;;;10.51;100.00
21956;BME280;11142;49.930;8.606;2023-04-02T03:17:30;99348.59;;;10.51;100.00
21956;BME280;11142;49.930;8.606;2023-04-02T03:20:04;99348.50;;;10.64;100.00
21956;BME280;11142;49.930;8.606;2023-04-02T03:22:36;99349.69;;;10.71;100.00
21956;BME280;11142;49.930;8.606;2023-04-02T03:25:10;99354.00;;;10.59;100.00
21956;BME280;11142;49.930;8.606;2023-04-02T03:27:44;99351.88;;;10.53;100.00
21956;BME280;11142;49.930;8.606;2023-04-02T03:30:20;99358.50;;;10.57;100.00
21956;BME280;11142;49.930;8.606;2023-04-02T03:32:53;99368.03;;;10.57;100.00
21956;BME280;11142;49.930;8.606;2023-04-02T03:35:26;99372.03;;;10.50;100.00
21956;BME280;11142;49.930;8.606;2023-04-02T03:37:57;99372.72;;;10.41;100.00
21956;BME280;11142;49.930;8.606;2023-04-02T03:40:27;99369.78;;;10.45;100.00
21956;BME280;11142;49.930;8.606;2023-04-02T03:42:58;99372.75;;;10.52;100.00
21956;BME280;11142;49.930;8.606;2023-04-02T03:45:28;99385.03;;;10.61;100.00
21956;BME280;11142;49.930;8.606;2023-04-02T03:48:02;99386.72;;;10.62;100.00
21956;BME280;11142;49.930;8.606;2023-04-02T03:50:34;99401.31;;;10.63;100.00
21956;BME280;11142;49.930;8.606;2023-04-02T03:53:04;99402.84;;;10.65;100.00
21956;BME280;11142;49.930;8.606;2023-04-02T03:55:34;99409.69;;;10.66;100.00
21956;BME280;11142;49.930;8.606;2023-04-02T03:58:06;99412.28;;;10.55;100.00
21956;BME280;11142;49.930;8.606;2023-04-02T04:00:37;99412.13;;;10.46;100.00
21956;BME280;11142;49.930;8.606;2023-04-02T04:03:09;99412.53;;;10.63;100.00
21956;BME280;11142;49.930;8.606;2023-04-02T04:05:44;99412.56;;;10.86;100.00
21956;BME280;11142;49.930;8.606;2023-04-02T04:08:15;99424.13;;;10.82;100.00
21956;BME280;11142;49.930;8.606;2023-04-02T04:10:44;99433.09;;;10.78;100.00
21956;BME280;11142;49.930;8.606;2023-04-02T04:13:14;99429.53;;;10.79;100.00
21956;BME280;11142;49.930;8.606;2023-04-02T04:15:47;99434.50;;;10.82;100.00
21956;BME280;11142;49.930;8.606;2023-04-02T04:18:19;99438.28;;;10.78;100.00
21956;BME280;11142;49.930;8.606;2023-04-02T04:20:59;99441.81;;;10.88;100.00
21956;BME280;11142;49.930;8.606;2023-04-02T04:23:37;99443.13;;;10.82;100.00
21956;BME280;11142;49.930;8.606;2023-04-02T04:26:12;99447.59;;;10.80;100.00
21956;BME280;11142;49.930;8.606;2023-04-02T04:28:53;99450.72;;;10.61;100.00
21956;BME280;11142;49.930;8.606;2023-04-02T04:31:26;99463.25;;;10.68;100.00
21956;BME280;11142;49.930;8.606;2023-04-02T04:34:04;99456.16;;;10.70;100.00
21956;BME280;11142;49.930;8.606;2023-04-02T04:36:39;99460.44;;;10.71;100.00
21956;BME280;11142;49.930;8.606;2023-04-02T04:39:25;99465.72;;;10.69;100.00
21956;BME280;11142;49.930;8.606;2023-04-02T04:41:58;99477.22;;;10.78;100.00
21956;BME280;11142;49.930;8.606;2023-04-02T04:44:32;99482.16;;;10.81;100.00
21956;BME280;11142;49.930;8.606;2023-04-02T04:47:05;99483.09;;;10.80;100.00
21956;BME280;11142;49.930;8.606;2023-04-02T04:49:35;99483.72;;;10.83;100.00
21956;BME280;11142;49.930;8.606;2023-04-02T04:52:08;99490.81;;;10.92;100.00
21956;BME280;11142;49.930;8.606;2023-04-02T04:54:39;99493.41;;;10.92;100.00
21956;BME280;11142;49.930;8.606;2023-04-02T04:57:17;99502.19;;;10.68;100.00
21956;BME280;11142;49.930;8.606;2023-04-02T04:59:50;99499.28;;;10.83;100.00
21956;BME280;11142;49.930;8.606;2023-04-02T05:02:21;99501.34;;;11.02;100.00
21956;BME280;11142;49.930;8.606;2023-04-02T05:04:53;99512.28;;;10.94;100.00
21956;BME280;11142;49.930;8.606;2023-04-02T05:07:24;99510.50;;;10.84;100.00
21956;BME280;11142;49.930;8.606;2023-04-02T05:09:55;99514.63;;;10.86;100.00
21956;BME280;11142;49.930;8.606;2023-04-02T05:12:29;99513.69;;;10.87;100.00
21956;BME280;11142;49.930;8.606;2023-04-02T05:15:03;99505.91;;;10.87;100.00
21956;BME280;11142;49.930;8.606;2023-04-02T05:17:35;99516.38;;;10.75;100.00
21956;BME280;11142;49.930;8.606;2023-04-02T05:20:10;99517.09;;;10.88;100.00
21956;BME280;11142;49.930;8.606;2023-04-02T05:22:48;99525.16;;;10.96;100.00
21956;BME280;11142;49.930;8.606;2023-04-02T05:25:19;99529.66;;;11.05;100.00
21956;BME280;11142;49.930;8.606;2023-04-02T05:27:51;99536.25;;;10.98;100.00
21956;BME280;11142;49.930;8.606;2023-04-02T05:30:44;99544.78;;;11.00;100.00
21956;BME280;11142;49.930;8.606;2023-04-02T05:33:22;99548.63;;;10.94;100.00
21956;BME280;11142;49.930;8.606;2023-04-02T05:35:55;99548.75;;;10.93;100.00
21956;BME280;11142;49.930;8.606;2023-04-02T05:38:28;99552.16;;;11.28;100.00
21956;BME280;11142;49.930;8.606;2023-04-02T05:40:59;99556.75;;;11.36;100.00
21956;BME280;11142;49.930;8.606;2023-04-02T05:43:31;99562.09;;;11.34;100.00
21956;BME280;11142;49.930;8.606;2023-04-02T05:46:03;99573.34;;;11.57;100.00
21956;BME280;11142;49.930;8.606;2023-04-02T05:48:36;99579.03;;;11.62;100.00
21956;BME280;11142;49.930;8.606;2023-04-02T05:51:06;99578.59;;;11.79;100.00
21956;BME280;11142;49.930;8.606;2023-04-02T05:53:39;99590.66;;;12.02;100.00
21956;BME280;11142;49.930;8.606;2023-04-02T05:56:09;99586.41;;;12.12;100.00
21956;BME280;11142;49.930;8.606;2023-04-02T05:58:40;99593.59;;;12.31;100.00
21956;BME280;11142;49.930;8.606;2023-04-02T06:01:38;99595.31;;;12.53;100.00
21956;BME280;11142;49.930;8.606;2023-04-02T06:04:29;99601.84;;;12.58;100.00
21956;BME280;11142;49.930;8.606;2023-04-02T06:07:00;99607.47;;;12.74;100.00
21956;BME280;11142;49.930;8.606;2023-04-02T06:09:38;99617.16;;;12.72;100.00
21956;BME280;11142;49.930;8.606;2023-04-02T06:12:11;99619.44;;;12.77;100.00
21956;BME280;11142;49.930;8.606;2023-04-02T06:14:42;99617.84;;;12.86;100.00
21956;BME280;11142;49.930;8.606;2023-04-02T06:17:13;99622.66;;;13.12;100.00
21956;BME280;11142;49.930;8.606;2023-04-02T06:19:43;99629.81;;;13.20;100.00
21956;BME280;11142;49.930;8.606;2023-04-02T06:22:21;99637.16;;;13.26;100.00
21956;BME280;11142;49.930;8.606;2023-04-02T06:24:57;99643.50;;;13.12;100.00
21956;BME280;11142;49.930;8.606;2023-04-02T06:27:29;99650.66;;;13.20;100.00
21956;BME280;11142;49.930;8.606;2023-04-02T06:29:58;99655.94;;;13.41;100.00
21956;BME280;11142;49.930;8.606;2023-04-02T06:32:30;99660.25;;;13.51;100.00
21956;BME280;11142;49.930;8.606;2023-04-02T06:34:59;99671.47;;;13.63;100.00
21956;BME280;11142;49.930;8.606;2023-04-02T06:37:27;99670.69;;;13.72;100.00
21956;BME280;11142;49.930;8.606;2023-04-02T06:40:20;99681.19;;;13.81;100.00
21956;BME280;11142;49.930;8.606;2023-04-02T06:42:52;99682.84;;;13.82;100.00
21956;BME280;11142;49.930;8.606;2023-04-02T06:46:06;99694.56;;;13.88;100.00
21956;BME280;11142;49.930;8.606;2023-04-02T06:48:55;99695.03;;;14.03;100.00
21956;BME280;11142;49.930;8.606;2023-04-02T06:51:25;99703.50;;;14.16;100.00
21956;BME280;11142;49.930;8.606;2023-04-02T06:53:54;99711.03;;;13.89;100.00
21956;BME280;11142;49.930;8.606;2023-04-02T06:56:27;99709.66;;;13.53;100.00
21956;BME280;11142;49.930;8.606;2023-04-02T06:59:00;99712.75;;;13.78;100.00
21956;BME280;11142;49.930;8.606;2023-04-02T07:01:31;99722.38;;;14.29;100.00
21956;BME280;11142;49.930;8.606;2023-04-02T07:04:00;99736.09;;;13.48;100.00
21956;BME280;11142;49.930;8.606;2023-04-02T07:06:36;99733.38;;;13.50;100.00
21956;BME280;11142;49.930;8.606;2023-04-02T07:09:04;99732.84;;;13.88;100.00
21956;BME280;11142;49.930;8.606;2023-04-02T07:11:38;99733.97;;;14.15;100.00
21956;BME280;11142;49.930;8.606;2023-04-02T07:14:08;99745.72;;;12.71;100.00
21956;BME280;11142;49.930;8.606;2023-04-02T07:16:36;99752.38;;;13.41;100.00
21956;BME280;11142;49.930;8.606;2023-04-02T07:19:04;99750.50;;;13.32;100.00
21956;BME280;11142;49.930;8.606;2023-04-02T07:21:35;99753.28;;;12.52;100.00
21956;BME280;11142;49.930;8.606;2023-04-02T07:24:04;99761.06;;;12.30;100.00
21956;BME280;11142;49.930;8.606;2023-04-02T07:26:32;99752.91;;;12.35;100.00
21956;BME280;11142;49.930;8.606;2023-04-02T07:29:01;99764.75;;;12.61;100.00
21956;BME280;11142;49.930;8.606;2023-04-02T07:31:29;99765.97;;;11.52;100.00
21956;BME280;11142;49.930;8.606;2023-04-02T07:33:58;99760.00;;;10.29;100.00
21956;BME280;11142;49.930;8.606;2023-04-02T07:36:26;99762.28;;;9.42;100.00
21956;BME280;11142;49.930;8.606;2023-04-02T07:38:55;99752.69;;;9.03;100.00
21956;BME280;11142;49.930;8.606;2023-04-02T07:41:22;99772.88;;;8.56;100.00
21956;BME280;11142;49.930;8.606;2023-04-02T07:43:51;99761.25;;;8.48;100.00
21956;BME280;11142;49.930;8.606;2023-04-02T07:46:21;99758.56;;;8.36;100.00
21956;BME280;11142;49.930;8.606;2023-04-02T07:48:49;99760.56;;;8.31;100.00
21956;BME280;11142;49.930;8.606;2023-04-02T07:51:18;99765.41;;;8.37;100.00
21956;BME280;11142;49.930;8.606;2023-04-02T07:53:46;99762.81;;;8.37;100.00
21956;BME280;11142;49.930;8.606;2023-04-02T07:56:23;99767.19;;;8.21;100.00
21956;BME280;11142;49.930;8.606;2023-04-02T07:58:51;99767.44;;;8.16;100.00
21956;BME280;11142;49.930;8.606;2023-04-02T08:01:21;99772.81;;;8.13;100.00
21956;BME280;11142;49.930;8.606;2023-04-02T08:03:51;99784.22;;;8.09;100.00
21956;BME280;11142;49.930;8.606;2023-04-02T08:06:20;99775.19;;;8.16;100.00
21956;BME280;11142;49.930;8.606;2023-04-02T08:08:48;99782.22;;;8.14;100.00
21956;BME280;11142;49.930;8.606;2023-04-02T08:11:16;99787.56;;;8.11;100.00
21956;BME280;11142;49.930;8.606;2023-04-02T08:13:43;99795.75;;;8.03;100.00
21956;BME280;11142;49.930;8.606;2023-04-02T08:16:11;99797.84;;;8.27;100.00
21956;BME280;11142;49.930;8.606;2023-04-02T08:18:40;99804.53;;;8.15;100.00
21956;BME280;11142;49.930;8.606;2023-04-02T08:21:08;99808.25;;;8.55;100.00
21956;BME280;11142;49.930;8.606;2023-04-02T08:23:37;99814.09;;;8.59;100.00
21956;BME280;11142;49.930;8.606;2023-04-02T08:26:05;99822.47;;;8.34;100.00
21956;BME280;11142;49.930;8.606;2023-04-02T08:28:33;99827.88;;;7.84;100.00
21956;BME280;11142;49.930;8.606;2023-04-02T08:31:01;99828.56;;;8.17;100.00
21956;BME280;11142;49.930;8.606;2023-04-02T08:33:31;99832.81;;;8.48;100.00
21956;BME280;11142;49.930;8.606;2023-04-02T08:36:01;99848.97;;;8.51;100.00
21956;BME280;11142;49.930;8.606;2023-04-02T08:38:28;99864.16;;;8.12;100.00
21956;BME280;11142;49.930;8.606;2023-04-02T08:40:57;99882.81;;;7.72;100.00
21956;BME280;11142;49.930;8.606;2023-04-02T08:43:32;99879.41;;;7.71;100.00
21956;BME280;11142;49.930;8.606;2023-04-02T08:46:05;99891.00;;;7.80;100.00
21956;BME280;11142;49.930;8.606;2023-04-02T08:48:37;99897.31;;;7.74;100.00
21956;BME280;11142;49.930;8.606;2023-04-02T08:51:13;99900.03;;;7.87;100.00
21956;BME280;11142;49.930;8.606;2023-04-02T08:53:46;99896.91;;;8.27;100.00
21956;BME280;11142;49.930;8.606;2023-04-02T08:56:14;99899.34;;;8.30;100.00
21956;BME280;11142;49.930;8.606;2023-04-02T08:58:45;99909.19;;;8.53;100.00
21956;BME280;11142;49.930;8.606;2023-04-02T09:01:17;99915.25;;;8.23;100.00
21956;BME280;11142;49.930;8.606;2023-04-02T09:03:48;99921.31;;;7.92;100.00
21956;BME280;11142;49.930;8.606;2023-04-02T09:06:18;99910.81;;;7.79;100.00
21956;BME280;11142;49.930;8.606;2023-04-02T09:08:47;99928.53;;;8.01;100.00
21956;BME280;11142;49.930;8.606;2023-04-02T09:11:18;99923.06;;;7.91;100.00
21956;BME280;11142;49.930;8.606;2023-04-02T09:13:50;99934.66;;;8.45;100.00
21956;BME280;11142;49.930;8.606;2023-04-02T09:16:19;99951.63;;;8.20;100.00
21956;BME280;11142;49.930;8.606;2023-04-02T09:18:51;99940.56;;;8.02;100.00
21956;BME280;11142;49.930;8.606;2023-04-02T09:21:25;99950.56;;;8.08;100.00
21956;BME280;11142;49.930;8.606;2023-04-02T09:23:57;99958.72;;;7.85;100.00
21956;BME280;11142;49.930;8.606;2023-04-02T09:26:25;99950.28;;;8.28;100.00
21956;BME280;11142;49.930;8.606;2023-04-02T09:28:58;99967.13;;;8.04;100.00
21956;BME280;11142;49.930;8.606;2023-04-02T09:31:29;99975.06;;;8.32;100.00
21956;BME280;11142;49.930;8.606;2023-04-02T09:33:58;99985.16;;;8.21;100.00
21956;BME280;11142;49.930;8.606;2023-04-02T09:36:35;99995.28;;;7.93;100.00
21956;BME280;11142;49.930;8.606;2023-04-02T09:39:04;100000.16;;;7.99;100.00
21956;BME280;11142;49.930;8.606;2023-04-02T09:41:34;100009.38;;;7.87;100.00
21956;BME280;11142;49.930;8.606;2023-04-02T09:44:13;100016.38;;;7.70;100.00
21956;BME280;11142;49.930;8.606;2023-04-02T09:46:51;100017.22;;;7.70;100.00
21956;BME280;11142;49.930;8.606;2023-04-02T09:49:20;100039.28;;;7.43;100.00
21956;BME280;11142;49.930;8.606;2023-04-02T09:52:10;100034.00;;;7.62;100.00
21956;BME280;11142;49.930;8.606;2023-04-02T09:54:43;100026.75;;;7.68;100.00
21956;BME280;11142;49.930;8.606;2023-04-02T09:57:19;100040.97;;;7.77;100.00
21956;BME280;11142;49.930;8.606;2023-04-02T10:00:06;100041.84;;;7.60;100.00
21956;BME280;11142;49.930;8.606;2023-04-02T10:02:58;100050.00;;;7.68;100.00
21956;BME280;11142;49.930;8.606;2023-04-02T10:05:26;100060.19;;;7.71;100.00
21956;BME280;11142;49.930;8.606;2023-04-02T10:08:12;100061.66;;;7.92;100.00
21956;BME280;11142;49.930;8.606;2023-04-02T10:10:45;100073.75;;;8.23;100.00
21956;BME280;11142;49.930;8.606;2023-04-02T10:13:16;100091.75;;;8.25;100.00
21956;BME280;11142;49.930;8.606;2023-04-02T10:15:47;100085.72;;;8.41;100.00
21956;BME280;11142;49.930;8.606;2023-04-02T10:18:19;100093.84;;;8.18;100.00
21956;BME280;11142;49.930;8.606;2023-04-02T10:20:49;100098.41;;;8.30;100.00
21956;BME280;11142;49.930;8.606;2023-04-02T10:23:21;100111.34;;;8.46;100.00
21956;BME280;11142;49.930;8.606;2023-04-02T10:25:53;100121.69;;;8.13;100.00
21956;BME280;11142;49.930;8.606;2023-04-02T10:28:26;100121.84;;;8.10;100.00
21956;BME280;11142;49.930;8.606;2023-04-02T10:31:01;100122.78;;;8.25;100.00
21956;BME280;11142;49.930;8.606;2023-04-02T10:33:34;100130.09;;;8.49;100.00
21956;BME280;11142;49.930;8.606;2023-04-02T10:36:07;100144.94;;;8.46;100.00
21956;BME280;11142;49.930;8.606;2023-04-02T10:38:40;100133.06;;;8.89;100.00
21956;BME280;11142;49.930;8.606;2023-04-02T10:41:16;100147.75;;;8.88;100.00
21956;BME280;11142;49.930;8.606;2023-04-02T10:43:59;100153.09;;;8.38;100.00
21956;BME280;11142;49.930;8.606;2023-04-02T10:46:48;100147.44;;;8.79;100.00
21956;BME280;11142;49.930;8.606;2023-04-02T10:49:21;100155.84;;;9.43;100.00
21956;BME280;11142;49.930;8.606;2023-04-02T10:51:57;100169.00;;;9.98;100.00
21956;BME280;11142;49.930;8.606;2023-04-02T10:54:31;100190.91;;;9.79;100.00
21956;BME280;11142;49.930;8.606;2023-04-02T10:57:03;100183.00;;;9.06;100.00
21956;BME280;11142;49.930;8.606;2023-04-02T10:59:34;100177.75;;;8.61;100.00
21956;BME280;11142;49.930;8.606;2023-04-02T11:02:13;100193.25;;;8.61;100.00
21956;BME280;11142;49.930;8.606;2023-04-02T11:04:44;100208.13;;;8.89;100.00
21956;BME280;11142;49.930;8.606;2023-04-02T11:07:13;100193.72;;;8.36;100.00
21956;BME280;11142;49.930;8.606;2023-04-02T11:09:46;100210.97;;;9.00;100.00
21956;BME280;11142;49.930;8.606;2023-04-02T11:12:17;100223.28;;;9.26;100.00
21956;BME280;11142;49.930;8.606;2023-04-02T11:14:48;100208.63;;;9.56;100.00
21956;BME280;11142;49.930;8.606;2023-04-02T11:17:18;100221.44;;;9.74;100.00
21956;BME280;11142;49.930;8.606;2023-04-02T11:19:47;100225.88;;;9.26;100.00
21956;BME280;11142;49.930;8.606;2023-04-02T11:22:16;100226.91;;;9.08;100.00
21956;BME280;11142;49.930;8.606;2023-04-02T11:24:46;100224.75;;;9.46;100.00
21956;BME280;11142;49.930;8.606;2023-04-02T11:27:23;100241.25;;;9.14;100.00
21956;BME280;11142;49.930;8.606;2023-04-02T11:29:55;100232.56;;;9.30;100.00
21956;BME280;11142;49.930;8.606;2023-04-02T11:32:34;100231.66;;;9.61;100.00
21956;BME280;11142;49.930;8.606;2023-04-02T11:37:53;100252.53;;;9.28;100.00
21956;BME280;11142;49.930;8.606;2023-04-02T11:40:44;100255.72;;;9.02;100.00
21956;BME280;11142;49.930;8.606;2023-04-02T11:45:58;100273.06;;;9.77;100.00
21956;BME280;11142;49.930;8.606;2023-04-02T11:48:28;100275.22;;;9.70;100.00
21956;BME280;11142;49.930;8.606;2023-04-02T11:50:57;100274.00;;;9.30;100.00
21956;BME280;11142;49.930;8.606;2023-04-02T11:53:26;100289.69;;;9.27;100.00
21956;BME280;11142;49.930;8.606;2023-04-02T11:56:07;100289.53;;;8.99;100.00
21956;BME280;11142;49.930;8.606;2023-04-02T11:58:44;100286.72;;;8.71;100.00
21956;BME280;11142;49.930;8.606;2023-04-02T12:01:22;100307.44;;;8.53;100.00
21956;BME280;11142;49.930;8.606;2023-04-02T12:04:07;100302.13;;;8.57;100.00
21956;BME280;11142;49.930;8.606;2023-04-02T12:06:43;100319.25;;;8.59;100.00
21956;BME280;11142;49.930;8.606;2023-04-02T12:09:17;100313.09;;;8.10;100.00
21956;BME280;11142;49.930;8.606;2023-04-02T12:11:47;100304.81;;;8.55;100.00
21956;BME280;11142;49.930;8.606;2023-04-02T12:14:41;100315.63;;;8.79;100.00
21956;BME280;11142;49.930;8.606;2023-04-02T12:17:15;100316.38;;;8.81;100.00
21956;BME280;11142;49.930;8.606;2023-04-02T12:19:45;100318.09;;;9.13;100.00
21956;BME280;11142;49.930;8.606;2023-04-02T12:22:15;100330.94;;;8.99;100.00
21956;BME280;11142;49.930;8.606;2023-04-02T12:24:46;100334.03;;;8.73;100.00
21956;BME280;11142;49.930;8.606;2023-04-02T12:27:17;100324.44;;;9.07;100.00
21956;BME280;11142;49.930;8.606;2023-04-02T12:29:48;100350.66;;;8.69;100.00
21956;BME280;11142;49.930;8.606;2023-04-02T12:32:20;100339.38;;;8.70;100.00
21956;BME280;11142;49.930;8.606;2023-04-02T12:34:52;100344.22;;;8.76;100.00
21956;BME280;11142;49.930;8.606;2023-04-02T12:37:21;100355.69;;;8.54;100.00
21956;BME280;11142;49.930;8.606;2023-04-02T12:39:53;100360.28;;;8.49;100.00
21956;BME280;11142;49.930;8.606;2023-04-02T12:42:26;100368.84;;;9.00;100.00
21956;BME280;11142;49.930;8.606;2023-04-02T12:44:54;100363.81;;;8.81;100.00
21956;BME280;11142;49.930;8.606;2023-04-02T12:47:22;100378.78;;;8.23;100.00
21956;BME280;11142;49.930;8.606;2023-04-02T12:49:51;100371.72;;;8.44;100.00
21956;BME280;11142;49.930;8.606;2023-04-02T12:52:20;100377.63;;;8.30;100.00
21956;BME280;11142;49.930;8.606;2023-04-02T12:54:49;100356.75;;;8.50;100.00
21956;BME280;11142;49.930;8.606;2023-04-02T12:57:19;100393.81;;;8.15;100.00
21956;BME280;11142;49.930;8.606;2023-04-02T12:59:48;100385.38;;;8.30;100.00
21956;BME280;11142;49.930;8.606;2023-04-02T13:02:17;100385.22;;;7.97;100.00
21956;BME280;11142;49.930;8.606;2023-04-02T13:04:46;100383.78;;;8.09;100.00
21956;BME280;11142;49.930;8.606;2023-04-02T13:07:15;100388.78;;;8.12;100.00
21956;BME280;11142;49.930;8.606;2023-04-02T13:09:45;100394.66;;;7.98;100.00
21956;BME280;11142;49.930;8.606;2023-04-02T13:12:23;100403.31;;;7.97;100.00
21956;BME280;11142;49.930;8.606;2023-04-02T13:14:54;100396.41;;;7.98;100.00
21956;BME280;11142;49.930;8.606;2023-04-02T13:17:39;100399.16;;;7.76;100.00
21956;BME280;11142;49.930;8.606;2023-04-02T13:22:54;100411.69;;;8.20;100.00
21956;BME280;11142;49.930;8.606;2023-04-02T13:25:23;100413.53;;;8.18;100.00
21956;BME280;11142;49.930;8.606;2023-04-02T13:27:54;100409.25;;;8.35;100.00
21956;BME280;11142;49.930;8.606;2023-04-02T13:30:24;100404.44;;;8.28;100.00
21956;BME280;11142;49.930;8.606;2023-04-02T13:32:52;100422.53;;;7.92;100.00
21956;BME280;11142;49.930;8.606;2023-04-02T13:35:21;100425.69;;;7.61;100.00